sensor_id;sensor_type;location;lat;lon;timestamp;P1;durP1;ratioP1;P2;durP2;ratioP2
45618;SDS011;31343;47.520;19.144;2023-03-29T00:00:41;3.20;;;1.58;;
45618;SDS011;31343;47.520;19.144;2023-03-29T00:03:07;2.95;;;1.42;;
45618;SDS011;31343;47.520;19.144;2023-03-29T00:05:33;4.35;;;1.75;;
45618;SDS011;31343;47.520;19.144;2023-03-29T00:07:59;3.67;;;1.35;;
45618;SDS011;31343;47.520;19.144;2023-03-29T00:10:30;3.38;;;1.35;;
45618;SDS011;31343;47.520;19.144;2023-03-29T00:12:56;4.00;;;1.50;;
45618;SDS011;31343;47.520;19.144;2023-03-29T00:15:22;3.15;;;1.88;;
45618;SDS011;31343;47.520;19.144;2023-03-29T00:17:48;2.20;;;1.40;;
45618;SDS011;31343;47.520;19.144;2023-03-29T00:20:14;2.38;;;1.40;;
45618;SDS011;31343;47.520;19.144;2023-03-29T00:22:40;2.17;;;1.20;;
45618;SDS011;31343;47.520;19.144;2023-03-29T00:25:07;3.50;;;1.58;;
45618;SDS011;31343;47.520;19.144;2023-03-29T00:27:33;3.28;;;1.58;;
45618;SDS011;31343;47.520;19.144;2023-03-29T00:29:59;3.38;;;1.58;;
45618;SDS011;31343;47.520;19.144;2023-03-29T00:32:28;3.95;;;1.73;;
45618;SDS011;31343;47.520;19.144;2023-03-29T00:34:55;3.00;;;1.50;;
45618;SDS011;31343;47.520;19.144;2023-03-29T00:37:21;3.05;;;1.67;;
45618;SDS011;31343;47.520;19.144;2023-03-29T00:39:51;2.92;;;1.48;;
45618;SDS011;31343;47.520;19.144;2023-03-29T00:42:19;2.45;;;1.50;;
45618;SDS011;31343;47.520;19.144;2023-03-29T00:52:54;2.95;;;1.60;;
45618;SDS011;31343;47.520;19.144;2023-03-29T00:55:34;2.67;;;1.63;;
45618;SDS011;31343;47.520;19.144;2023-03-29T00:58:03;4.28;;;2.10;;
45618;SDS011;31343;47.520;19.144;2023-03-29T01:00:36;3.28;;;1.73;;
45618;SDS011;31343;47.520;19.144;2023-03-29T01:03:07;3.30;;;1.70;;
45618;SDS011;31343;47.520;19.144;2023-03-29T01:05:43;5.18;;;2.03;;
45618;SDS011;31343;47.520;19.144;2023-03-29T01:08:11;4.80;;;1.38;;
45618;SDS011;31343;47.520;19.144;2023-03-29T01:10:44;3.55;;;1.63;;
45618;SDS011;31343;47.520;19.144;2023-03-29T01:13:16;4.15;;;2.15;;
45618;SDS011;31343;47.520;19.144;2023-03-29T01:15:44;3.30;;;2.13;;
45618;SDS011;31343;47.520;19.144;2023-03-29T01:18:13;3.10;;;1.95;;
45618;SDS011;31343;47.520;19.144;2023-03-29T01:20:44;3.42;;;1.80;;
45618;SDS011;31343;47.520;19.144;2023-03-29T01:29:02;3.63;;;1.83;;
45618;SDS011;31343;47.520;19.144;2023-03-29T01:31:37;4.07;;;2.10;;
45618;SDS011;31343;47.520;19.144;2023-03-29T01:34:15;3.65;;;1.85;;
45618;SDS011;31343;47.520;19.144;2023-03-29T01:39:24;5.38;;;2.00;;
45618;SDS011;31343;47.520;19.144;2023-03-29T01:41:55;3.58;;;1.70;;
45618;SDS011;31343;47.520;19.144;2023-03-29T01:44:30;4.35;;;1.70;;
45618;SDS011;31343;47.520;19.144;2023-03-29T01:47:16;4.47;;;2.15;;
45618;SDS011;31343;47.520;19.144;2023-03-29T01:49:52;3.90;;;1.65;;
45618;SDS011;31343;47.520;19.144;2023-03-29T01:52:37;4.80;;;1.98;;
45618;SDS011;31343;47.520;19.144;2023-03-29T01:55:14;5.50;;;1.87;;
45618;SDS011;31343;47.520;19.144;2023-03-29T01:57:44;4.05;;;2.40;;
45618;SDS011;31343;47.520;19.144;2023-03-29T02:00:13;4.53;;;1.92;;
45618;SDS011;31343;47.520;19.144;2023-03-29T02:02:40;3.53;;;1.80;;
45618;SDS011;31343;47.520;19.144;2023-03-29T02:05:09;3.80;;;2.10;;
45618;SDS011;31343;47.520;19.144;2023-03-29T02:07:38;3.97;;;1.67;;
45618;SDS011;31343;47.520;19.144;2023-03-29T02:10:06;2.97;;;2.22;;
45618;SDS011;31343;47.520;19.144;2023-03-29T02:12:34;4.38;;;2.17;;
45618;SDS011;31343;47.520;19.144;2023-03-29T02:15:00;2.35;;;1.40;;
45618;SDS011;31343;47.520;19.144;2023-03-29T02:17:26;5.25;;;2.45;;
45618;SDS011;31343;47.520;19.144;2023-03-29T02:25:43;5.10;;;1.92;;
45618;SDS011;31343;47.520;19.144;2023-03-29T02:28:11;3.20;;;1.67;;
45618;SDS011;31343;47.520;19.144;2023-03-29T02:30:41;3.63;;;1.98;;
45618;SDS011;31343;47.520;19.144;2023-03-29T02:33:16;4.70;;;2.20;;
45618;SDS011;31343;47.520;19.144;2023-03-29T02:36:01;3.10;;;1.85;;
45618;SDS011;31343;47.520;19.144;2023-03-29T02:38:35;4.32;;;1.92;;
45618;SDS011;31343;47.520;19.144;2023-03-29T02:41:03;3.45;;;2.03;;
45618;SDS011;31343;47.520;19.144;2023-03-29T02:43:30;3.45;;;1.88;;
45618;SDS011;31343;47.520;19.144;2023-03-29T02:46:00;4.10;;;1.95;;
45618;SDS011;31343;47.520;19.144;2023-03-29T02:48:28;4.85;;;2.30;;
45618;SDS011;31343;47.520;19.144;2023-03-29T02:50:58;4.20;;;2.13;;
45618;SDS011;31343;47.520;19.144;2023-03-29T02:53:28;4.05;;;2.20;;
45618;SDS011;31343;47.520;19.144;2023-03-29T02:55:58;5.63;;;2.97;;
45618;SDS011;31343;47.520;19.144;2023-03-29T02:58:26;3.72;;;1.83;;
45618;SDS011;31343;47.520;19.144;2023-03-29T03:00:53;3.63;;;1.60;;
45618;SDS011;31343;47.520;19.144;2023-03-29T03:03:22;5.82;;;2.13;;
45618;SDS011;31343;47.520;19.144;2023-03-29T03:05:50;5.45;;;2.40;;
45618;SDS011;31343;47.520;19.144;2023-03-29T03:08:16;4.78;;;2.80;;
45618;SDS011;31343;47.520;19.144;2023-03-29T03:10:42;5.32;;;2.05;;
45618;SDS011;31343;47.520;19.144;2023-03-29T03:13:10;3.72;;;1.77;;
45618;SDS011;31343;47.520;19.144;2023-03-29T03:15:37;4.15;;;2.00;;
45618;SDS011;31343;47.520;19.144;2023-03-29T03:18:07;4.22;;;1.88;;
45618;SDS011;31343;47.520;19.144;2023-03-29T03:20:34;3.58;;;2.17;;
45618;SDS011;31343;47.520;19.144;2023-03-29T03:23:01;3.33;;;1.80;;
45618;SDS011;31343;47.520;19.144;2023-03-29T03:25:29;7.07;;;2.28;;
45618;SDS011;31343;47.520;19.144;2023-03-29T03:27:56;3.78;;;1.98;;
45618;SDS011;31343;47.520;19.144;2023-03-29T03:30:22;5.65;;;3.28;;
45618;SDS011;31343;47.520;19.144;2023-03-29T03:32:48;5.07;;;2.08;;
45618;SDS011;31343;47.520;19.144;2023-03-29T03:35:14;5.43;;;2.40;;
45618;SDS011;31343;47.520;19.144;2023-03-29T03:37:40;2.72;;;2.00;;
45618;SDS011;31343;47.520;19.144;2023-03-29T03:40:07;3.92;;;2.88;;
45618;SDS011;31343;47.520;19.144;2023-03-29T03:42:33;5.40;;;2.15;;
45618;SDS011;31343;47.520;19.144;2023-03-29T03:44:59;4.18;;;2.30;;
45618;SDS011;31343;47.520;19.144;2023-03-29T03:47:24;3.72;;;2.30;;
45618;SDS011;31343;47.520;19.144;2023-03-29T03:49:50;4.00;;;1.88;;
45618;SDS011;31343;47.520;19.144;2023-03-29T03:52:17;4.72;;;2.35;;
45618;SDS011;31343;47.520;19.144;2023-03-29T03:54:43;6.68;;;2.53;;
45618;SDS011;31343;47.520;19.144;2023-03-29T03:57:10;3.95;;;2.08;;
45618;SDS011;31343;47.520;19.144;2023-03-29T03:59:36;4.70;;;2.20;;
45618;SDS011;31343;47.520;19.144;2023-03-29T04:02:04;4.72;;;2.30;;
45618;SDS011;31343;47.520;19.144;2023-03-29T04:04:30;3.22;;;2.00;;
45618;SDS011;31343;47.520;19.144;2023-03-29T04:06:56;6.43;;;3.38;;
45618;SDS011;31343;47.520;19.144;2023-03-29T04:09:28;4.78;;;2.50;;
45618;SDS011;31343;47.520;19.144;2023-03-29T04:11:55;3.45;;;2.17;;
45618;SDS011;31343;47.520;19.144;2023-03-29T04:14:21;4.13;;;2.00;;
45618;SDS011;31343;47.520;19.144;2023-03-29T04:16:51;7.32;;;2.90;;
45618;SDS011;31343;47.520;19.144;2023-03-29T04:19:17;6.40;;;2.95;;
45618;SDS011;31343;47.520;19.144;2023-03-29T04:21:43;4.75;;;3.28;;
45618;SDS011;31343;47.520;19.144;2023-03-29T04:24:12;6.90;;;3.15;;
45618;SDS011;31343;47.520;19.144;2023-03-29T04:26:38;8.00;;;3.40;;
45618;SDS011;31343;47.520;19.144;2023-03-29T04:29:04;7.72;;;5.07;;
45618;SDS011;31343;47.520;19.144;2023-03-29T04:31:31;8.32;;;4.65;;
45618;SDS011;31343;47.520;19.144;2023-03-29T04:33:56;10.63;;;5.10;;
45618;SDS011;31343;47.520;19.144;2023-03-29T04:36:23;8.20;;;4.65;;
45618;SDS011;31343;47.520;19.144;2023-03-29T04:38:49;8.52;;;4.70;;
45618;SDS011;31343;47.520;19.144;2023-03-29T04:41:16;7.40;;;4.00;;
45618;SDS011;31343;47.520;19.144;2023-03-29T04:43:43;7.07;;;3.47;;
45618;SDS011;31343;47.520;19.144;2023-03-29T04:46:12;5.35;;;3.10;;
45618;SDS011;31343;47.520;19.144;2023-03-29T04:48:38;7.32;;;3.20;;
45618;SDS011;31343;47.520;19.144;2023-03-29T04:51:05;7.38;;;3.88;;
45618;SDS011;31343;47.520;19.144;2023-03-29T04:53:32;5.97;;;3.45;;
45618;SDS011;31343;47.520;19.144;2023-03-29T04:55:58;5.55;;;3.38;;
45618;SDS011;31343;47.520;19.144;2023-03-29T04:58:24;5.78;;;3.33;;
45618;SDS011;31343;47.520;19.144;2023-03-29T05:00:55;12.10;;;4.65;;
45618;SDS011;31343;47.520;19.144;2023-03-29T05:03:23;8.95;;;4.40;;
45618;SDS011;31343;47.520;19.144;2023-03-29T05:05:49;9.57;;;5.70;;
45618;SDS011;31343;47.520;19.144;2023-03-29T05:08:15;10.15;;;5.85;;
45618;SDS011;31343;47.520;19.144;2023-03-29T05:10:42;9.52;;;6.75;;
45618;SDS011;31343;47.520;19.144;2023-03-29T05:13:08;7.65;;;4.25;;
45618;SDS011;31343;47.520;19.144;2023-03-29T05:15:35;7.38;;;4.82;;
45618;SDS011;31343;47.520;19.144;2023-03-29T05:18:02;8.70;;;4.20;;
45618;SDS011;31343;47.520;19.144;2023-03-29T05:20:28;9.70;;;3.50;;
45618;SDS011;31343;47.520;19.144;2023-03-29T05:22:54;6.72;;;3.95;;
45618;SDS011;31343;47.520;19.144;2023-03-29T05:25:21;6.95;;;4.18;;
45618;SDS011;31343;47.520;19.144;2023-03-29T05:27:47;8.45;;;4.88;;
45618;SDS011;31343;47.520;19.144;2023-03-29T05:30:13;8.57;;;4.80;;
45618;SDS011;31343;47.520;19.144;2023-03-29T05:32:43;8.52;;;5.05;;
45618;SDS011;31343;47.520;19.144;2023-03-29T05:35:09;8.10;;;3.95;;
45618;SDS011;31343;47.520;19.144;2023-03-29T05:37:35;10.30;;;4.88;;
45618;SDS011;31343;47.520;19.144;2023-03-29T05:40:01;7.53;;;4.35;;
45618;SDS011;31343;47.520;19.144;2023-03-29T05:42:34;7.78;;;5.72;;
45618;SDS011;31343;47.520;19.144;2023-03-29T05:45:03;9.27;;;5.00;;
45618;SDS011;31343;47.520;19.144;2023-03-29T05:47:30;9.95;;;4.60;;
45618;SDS011;31343;47.520;19.144;2023-03-29T05:49:56;9.48;;;5.30;;
45618;SDS011;31343;47.520;19.144;2023-03-29T05:52:22;9.45;;;4.35;;
45618;SDS011;31343;47.520;19.144;2023-03-29T05:54:48;12.18;;;6.15;;
45618;SDS011;31343;47.520;19.144;2023-03-29T05:57:14;11.00;;;5.55;;
45618;SDS011;31343;47.520;19.144;2023-03-29T05:59:40;8.00;;;5.40;;
45618;SDS011;31343;47.520;19.144;2023-03-29T06:02:06;12.18;;;5.70;;
45618;SDS011;31343;47.520;19.144;2023-03-29T06:04:32;8.85;;;5.35;;
45618;SDS011;31343;47.520;19.144;2023-03-29T06:06:58;11.15;;;5.57;;
45618;SDS011;31343;47.520;19.144;2023-03-29T06:09:26;12.85;;;5.72;;
45618;SDS011;31343;47.520;19.144;2023-03-29T06:11:52;8.82;;;4.43;;
45618;SDS011;31343;47.520;19.144;2023-03-29T06:14:20;8.60;;;4.60;;
45618;SDS011;31343;47.520;19.144;2023-03-29T06:16:47;6.05;;;3.72;;
45618;SDS011;31343;47.520;19.144;2023-03-29T06:19:13;9.10;;;4.07;;
45618;SDS011;31343;47.520;19.144;2023-03-29T06:21:38;6.63;;;3.20;;
45618;SDS011;31343;47.520;19.144;2023-03-29T06:24:05;4.57;;;3.28;;
45618;SDS011;31343;47.520;19.144;2023-03-29T06:26:31;5.95;;;3.35;;
45618;SDS011;31343;47.520;19.144;2023-03-29T06:28:56;6.30;;;3.10;;
45618;SDS011;31343;47.520;19.144;2023-03-29T06:31:22;5.60;;;3.05;;
45618;SDS011;31343;47.520;19.144;2023-03-29T06:33:48;5.75;;;3.08;;
45618;SDS011;31343;47.520;19.144;2023-03-29T06:36:14;9.05;;;3.05;;
45618;SDS011;31343;47.520;19.144;2023-03-29T06:38:41;6.13;;;2.65;;
45618;SDS011;31343;47.520;19.144;2023-03-29T06:41:09;5.70;;;2.67;;
45618;SDS011;31343;47.520;19.144;2023-03-29T06:43:35;5.55;;;3.15;;
45618;SDS011;31343;47.520;19.144;2023-03-29T06:46:02;4.30;;;2.53;;
45618;SDS011;31343;47.520;19.144;2023-03-29T06:48:28;3.95;;;3.17;;
45618;SDS011;31343;47.520;19.144;2023-03-29T06:50:54;5.95;;;2.50;;
45618;SDS011;31343;47.520;19.144;2023-03-29T06:53:20;4.93;;;2.80;;
45618;SDS011;31343;47.520;19.144;2023-03-29T06:55:46;5.60;;;3.30;;
45618;SDS011;31343;47.520;19.144;2023-03-29T06:58:13;4.30;;;2.40;;
45618;SDS011;31343;47.520;19.144;2023-03-29T07:00:39;6.07;;;2.80;;
45618;SDS011;31343;47.520;19.144;2023-03-29T07:03:06;6.85;;;3.22;;
45618;SDS011;31343;47.520;19.144;2023-03-29T07:05:44;5.53;;;2.75;;
45618;SDS011;31343;47.520;19.144;2023-03-29T07:08:15;4.75;;;2.00;;
45618;SDS011;31343;47.520;19.144;2023-03-29T07:10:44;3.75;;;2.17;;
45618;SDS011;31343;47.520;19.144;2023-03-29T07:13:12;2.90;;;2.30;;
45618;SDS011;31343;47.520;19.144;2023-03-29T07:15:39;5.28;;;2.38;;
45618;SDS011;31343;47.520;19.144;2023-03-29T07:18:06;5.30;;;2.15;;
45618;SDS011;31343;47.520;19.144;2023-03-29T07:20:33;4.40;;;2.30;;
45618;SDS011;31343;47.520;19.144;2023-03-29T07:22:59;4.88;;;2.50;;
45618;SDS011;31343;47.520;19.144;2023-03-29T07:25:31;4.10;;;2.40;;
45618;SDS011;31343;47.520;19.144;2023-03-29T07:27:58;4.15;;;2.25;;
45618;SDS011;31343;47.520;19.144;2023-03-29T07:30:24;7.28;;;2.53;;
45618;SDS011;31343;47.520;19.144;2023-03-29T07:32:53;3.00;;;2.00;;
45618;SDS011;31343;47.520;19.144;2023-03-29T07:35:22;5.95;;;2.70;;
45618;SDS011;31343;47.520;19.144;2023-03-29T07:37:48;8.02;;;2.80;;
45618;SDS011;31343;47.520;19.144;2023-03-29T07:40:15;5.57;;;2.60;;
45618;SDS011;31343;47.520;19.144;2023-03-29T07:42:45;4.35;;;2.17;;
45618;SDS011;31343;47.520;19.144;2023-03-29T07:45:13;5.85;;;1.90;;
45618;SDS011;31343;47.520;19.144;2023-03-29T07:47:44;3.00;;;1.77;;
45618;SDS011;31343;47.520;19.144;2023-03-29T07:50:14;3.25;;;1.73;;
45618;SDS011;31343;47.520;19.144;2023-03-29T07:52:41;3.70;;;2.25;;
45618;SDS011;31343;47.520;19.144;2023-03-29T07:55:08;2.83;;;1.77;;
45618;SDS011;31343;47.520;19.144;2023-03-29T07:57:36;3.72;;;1.92;;
45618;SDS011;31343;47.520;19.144;2023-03-29T08:00:02;4.85;;;1.80;;
45618;SDS011;31343;47.520;19.144;2023-03-29T08:02:44;2.40;;;1.40;;
45618;SDS011;31343;47.520;19.144;2023-03-29T08:05:11;3.70;;;1.90;;
45618;SDS011;31343;47.520;19.144;2023-03-29T08:07:39;4.65;;;1.83;;
45618;SDS011;31343;47.520;19.144;2023-03-29T08:10:10;2.58;;;1.15;;
45618;SDS011;31343;47.520;19.144;2023-03-29T08:12:38;3.10;;;1.50;;
45618;SDS011;31343;47.520;19.144;2023-03-29T08:15:06;3.25;;;1.65;;
45618;SDS011;31343;47.520;19.144;2023-03-29T08:17:32;3.17;;;1.50;;
45618;SDS011;31343;47.520;19.144;2023-03-29T08:19:59;4.68;;;2.00;;
45618;SDS011;31343;47.520;19.144;2023-03-29T08:22:26;6.25;;;2.35;;
45618;SDS011;31343;47.520;19.144;2023-03-29T08:24:52;3.30;;;1.40;;
45618;SDS011;31343;47.520;19.144;2023-03-29T08:27:19;6.53;;;1.88;;
45618;SDS011;31343;47.520;19.144;2023-03-29T08:29:45;2.13;;;1.20;;
45618;SDS011;31343;47.520;19.144;2023-03-29T08:32:11;3.08;;;1.63;;
45618;SDS011;31343;47.520;19.144;2023-03-29T08:34:37;3.95;;;1.80;;
45618;SDS011;31343;47.520;19.144;2023-03-29T08:37:04;4.03;;;1.80;;
45618;SDS011;31343;47.520;19.144;2023-03-29T08:39:30;2.95;;;1.63;;
45618;SDS011;31343;47.520;19.144;2023-03-29T08:47:19;4.32;;;1.73;;
45618;SDS011;31343;47.520;19.144;2023-03-29T08:49:49;2.60;;;1.20;;
45618;SDS011;31343;47.520;19.144;2023-03-29T08:52:22;2.38;;;1.25;;
45618;SDS011;31343;47.520;19.144;2023-03-29T08:55:02;4.25;;;1.92;;
45618;SDS011;31343;47.520;19.144;2023-03-29T08:57:42;1.67;;;0.90;;
45618;SDS011;31343;47.520;19.144;2023-03-29T09:00:18;2.15;;;1.02;;
45618;SDS011;31343;47.520;19.144;2023-03-29T09:02:49;2.10;;;1.10;;
45618;SDS011;31343;47.520;19.144;2023-03-29T09:05:20;3.90;;;1.27;;
45618;SDS011;31343;47.520;19.144;2023-03-29T09:07:53;2.25;;;1.08;;
45618;SDS011;31343;47.520;19.144;2023-03-29T09:10:20;2.55;;;1.10;;
45618;SDS011;31343;47.520;19.144;2023-03-29T09:12:55;2.20;;;1.17;;
45618;SDS011;31343;47.520;19.144;2023-03-29T09:15:33;3.97;;;1.80;;
45618;SDS011;31343;47.520;19.144;2023-03-29T09:18:40;2.63;;;1.48;;
45618;SDS011;31343;47.520;19.144;2023-03-29T09:26:44;4.93;;;1.92;;
45618;SDS011;31343;47.520;19.144;2023-03-29T09:29:23;2.33;;;1.40;;
45618;SDS011;31343;47.520;19.144;2023-03-29T09:31:54;3.00;;;1.10;;
45618;SDS011;31343;47.520;19.144;2023-03-29T09:34:30;2.97;;;1.40;;
45618;SDS011;31343;47.520;19.144;2023-03-29T09:37:10;2.75;;;1.42;;
45618;SDS011;31343;47.520;19.144;2023-03-29T09:39:46;3.08;;;1.55;;
45618;SDS011;31343;47.520;19.144;2023-03-29T09:42:13;2.60;;;1.50;;
45618;SDS011;31343;47.520;19.144;2023-03-29T09:44:46;2.75;;;1.50;;
45618;SDS011;31343;47.520;19.144;2023-03-29T09:47:28;3.38;;;1.52;;
45618;SDS011;31343;47.520;19.144;2023-03-29T09:50:14;4.22;;;1.60;;
45618;SDS011;31343;47.520;19.144;2023-03-29T09:52:46;3.40;;;1.80;;
45618;SDS011;31343;47.520;19.144;2023-03-29T09:55:14;3.80;;;1.40;;
45618;SDS011;31343;47.520;19.144;2023-03-29T09:57:44;4.72;;;1.70;;
45618;SDS011;31343;47.520;19.144;2023-03-29T10:00:10;3.00;;;1.30;;
45618;SDS011;31343;47.520;19.144;2023-03-29T10:02:39;3.85;;;1.60;;
45618;SDS011;31343;47.520;19.144;2023-03-29T10:05:05;6.20;;;1.95;;
45618;SDS011;31343;47.520;19.144;2023-03-29T10:07:39;4.72;;;2.05;;
45618;SDS011;31343;47.520;19.144;2023-03-29T10:10:13;5.43;;;1.73;;
45618;SDS011;31343;47.520;19.144;2023-03-29T10:12:55;2.63;;;1.57;;
45618;SDS011;31343;47.520;19.144;2023-03-29T10:15:28;3.53;;;1.88;;
45618;SDS011;31343;47.520;19.144;2023-03-29T10:18:00;2.45;;;1.52;;
45618;SDS011;31343;47.520;19.144;2023-03-29T10:20:29;4.05;;;2.08;;
45618;SDS011;31343;47.520;19.144;2023-03-29T10:22:59;4.68;;;2.05;;
45618;SDS011;31343;47.520;19.144;2023-03-29T10:25:29;4.32;;;2.03;;
45618;SDS011;31343;47.520;19.144;2023-03-29T10:28:06;4.10;;;1.70;;
45618;SDS011;31343;47.520;19.144;2023-03-29T10:30:38;4.65;;;1.92;;
45618;SDS011;31343;47.520;19.144;2023-03-29T10:33:05;3.58;;;1.92;;
45618;SDS011;31343;47.520;19.144;2023-03-29T10:35:40;3.92;;;1.80;;
45618;SDS011;31343;47.520;19.144;2023-03-29T10:38:09;4.75;;;2.05;;
45618;SDS011;31343;47.520;19.144;2023-03-29T10:41:01;4.53;;;2.70;;
45618;SDS011;31343;47.520;19.144;2023-03-29T10:46:21;3.97;;;1.58;;
45618;SDS011;31343;47.520;19.144;2023-03-29T10:48:56;3.35;;;1.80;;
45618;SDS011;31343;47.520;19.144;2023-03-29T10:51:29;3.67;;;2.38;;
45618;SDS011;31343;47.520;19.144;2023-03-29T10:53:57;3.55;;;1.98;;
45618;SDS011;31343;47.520;19.144;2023-03-29T11:04:26;4.15;;;1.98;;
45618;SDS011;31343;47.520;19.144;2023-03-29T11:10:13;4.63;;;2.00;;
45618;SDS011;31343;47.520;19.144;2023-03-29T11:13:07;4.90;;;2.08;;
45618;SDS011;31343;47.520;19.144;2023-03-29T11:21:10;4.20;;;2.17;;
45618;SDS011;31343;47.520;19.144;2023-03-29T11:26:24;4.68;;;2.20;;
45618;SDS011;31343;47.520;19.144;2023-03-29T11:28:56;6.03;;;2.67;;
45618;SDS011;31343;47.520;19.144;2023-03-29T11:42:42;5.30;;;1.90;;
45618;SDS011;31343;47.520;19.144;2023-03-29T11:45:15;3.85;;;1.70;;
45618;SDS011;31343;47.520;19.144;2023-03-29T11:47:49;4.72;;;1.60;;
45618;SDS011;31343;47.520;19.144;2023-03-29T11:50:21;2.78;;;1.63;;
45618;SDS011;31343;47.520;19.144;2023-03-29T11:52:55;4.22;;;2.15;;
45618;SDS011;31343;47.520;19.144;2023-03-29T11:55:27;3.15;;;1.88;;
45618;SDS011;31343;47.520;19.144;2023-03-29T12:03:05;2.88;;;1.77;;
45618;SDS011;31343;47.520;19.144;2023-03-29T12:05:51;3.10;;;1.50;;
45618;SDS011;31343;47.520;19.144;2023-03-29T12:08:19;3.83;;;2.20;;
45618;SDS011;31343;47.520;19.144;2023-03-29T12:13:48;3.13;;;1.40;;
45618;SDS011;31343;47.520;19.144;2023-03-29T12:19:05;2.72;;;1.50;;
45618;SDS011;31343;47.520;19.144;2023-03-29T12:21:41;3.53;;;1.42;;
45618;SDS011;31343;47.520;19.144;2023-03-29T12:24:10;3.20;;;1.40;;
45618;SDS011;31343;47.520;19.144;2023-03-29T12:29:47;5.95;;;1.98;;
45618;SDS011;31343;47.520;19.144;2023-03-29T12:40:27;2.60;;;1.50;;
45618;SDS011;31343;47.520;19.144;2023-03-29T12:43:08;3.53;;;1.70;;
45618;SDS011;31343;47.520;19.144;2023-03-29T12:45:55;5.57;;;1.98;;
45618;SDS011;31343;47.520;19.144;2023-03-29T12:48:29;2.67;;;1.35;;
45618;SDS011;31343;47.520;19.144;2023-03-29T12:51:00;3.83;;;1.77;;
45618;SDS011;31343;47.520;19.144;2023-03-29T12:53:32;3.53;;;2.00;;
45618;SDS011;31343;47.520;19.144;2023-03-29T12:56:12;4.07;;;1.65;;
45618;SDS011;31343;47.520;19.144;2023-03-29T13:01:36;3.00;;;1.77;;
45618;SDS011;31343;47.520;19.144;2023-03-29T13:04:12;4.00;;;2.03;;
45618;SDS011;31343;47.520;19.144;2023-03-29T13:09:20;3.92;;;1.77;;
45618;SDS011;31343;47.520;19.144;2023-03-29T13:14:24;5.18;;;1.92;;
45618;SDS011;31343;47.520;19.144;2023-03-29T13:16:59;3.13;;;1.67;;
45618;SDS011;31343;47.520;19.144;2023-03-29T13:24:49;4.22;;;2.33;;
45618;SDS011;31343;47.520;19.144;2023-03-29T13:32:58;3.30;;;1.88;;
45618;SDS011;31343;47.520;19.144;2023-03-29T13:35:58;6.10;;;2.10;;
45618;SDS011;31343;47.520;19.144;2023-03-29T13:45:44;3.22;;;2.10;;
45618;SDS011;31343;47.520;19.144;2023-03-29T13:48:29;5.10;;;3.15;;
45618;SDS011;31343;47.520;19.144;2023-03-29T13:51:19;3.78;;;2.03;;
45618;SDS011;31343;47.520;19.144;2023-03-29T13:54:02;4.28;;;2.22;;
45618;SDS011;31343;47.520;19.144;2023-03-29T13:56:38;5.05;;;2.70;;
45618;SDS011;31343;47.520;19.144;2023-03-29T13:59:26;3.25;;;2.30;;
45618;SDS011;31343;47.520;19.144;2023-03-29T14:02:06;5.50;;;2.25;;
45618;SDS011;31343;47.520;19.144;2023-03-29T14:05:07;5.68;;;2.85;;
45618;SDS011;31343;47.520;19.144;2023-03-29T14:07:37;3.53;;;2.40;;
45618;SDS011;31343;47.520;19.144;2023-03-29T14:10:09;6.55;;;2.75;;
45618;SDS011;31343;47.520;19.144;2023-03-29T14:12:38;4.28;;;2.40;;
45618;SDS011;31343;47.520;19.144;2023-03-29T14:15:05;5.68;;;2.97;;
45618;SDS011;31343;47.520;19.144;2023-03-29T14:17:31;3.53;;;2.10;;
45618;SDS011;31343;47.520;19.144;2023-03-29T14:20:00;5.15;;;2.20;;
45618;SDS011;31343;47.520;19.144;2023-03-29T14:22:33;4.72;;;2.92;;
45618;SDS011;31343;47.520;19.144;2023-03-29T14:25:10;4.97;;;2.70;;
45618;SDS011;31343;47.520;19.144;2023-03-29T14:27:39;3.40;;;2.30;;
45618;SDS011;31343;47.520;19.144;2023-03-29T14:30:16;4.75;;;2.65;;
45618;SDS011;31343;47.520;19.144;2023-03-29T14:33:00;5.32;;;2.58;;
45618;SDS011;31343;47.520;19.144;2023-03-29T14:35:30;4.80;;;3.25;;
45618;SDS011;31343;47.520;19.144;2023-03-29T14:37:57;5.32;;;2.33;;
45618;SDS011;31343;47.520;19.144;2023-03-29T14:40:23;6.75;;;2.45;;
45618;SDS011;31343;47.520;19.144;2023-03-29T14:42:51;3.53;;;2.40;;
45618;SDS011;31343;47.520;19.144;2023-03-29T14:45:19;5.18;;;2.85;;
45618;SDS011;31343;47.520;19.144;2023-03-29T14:47:49;4.43;;;2.30;;
45618;SDS011;31343;47.520;19.144;2023-03-29T14:50:26;5.80;;;2.40;;
45618;SDS011;31343;47.520;19.144;2023-03-29T14:52:57;4.25;;;2.38;;
45618;SDS011;31343;47.520;19.144;2023-03-29T14:55:24;5.43;;;2.70;;
45618;SDS011;31343;47.520;19.144;2023-03-29T14:57:54;4.40;;;2.28;;
45618;SDS011;31343;47.520;19.144;2023-03-29T15:00:21;4.93;;;2.42;;
45618;SDS011;31343;47.520;19.144;2023-03-29T15:03:14;5.32;;;2.33;;
45618;SDS011;31343;47.520;19.144;2023-03-29T15:05:41;8.27;;;2.63;;
45618;SDS011;31343;47.520;19.144;2023-03-29T15:08:14;4.20;;;2.80;;
45618;SDS011;31343;47.520;19.144;2023-03-29T15:10:43;5.28;;;2.65;;
45618;SDS011;31343;47.520;19.144;2023-03-29T15:13:17;6.15;;;2.50;;
45618;SDS011;31343;47.520;19.144;2023-03-29T15:15:47;4.47;;;2.67;;
45618;SDS011;31343;47.520;19.144;2023-03-29T15:18:21;5.80;;;3.05;;
45618;SDS011;31343;47.520;19.144;2023-03-29T15:20:52;6.25;;;3.40;;
45618;SDS011;31343;47.520;19.144;2023-03-29T15:23:22;5.82;;;2.83;;
45618;SDS011;31343;47.520;19.144;2023-03-29T15:26:06;10.25;;;3.22;;
45618;SDS011;31343;47.520;19.144;2023-03-29T15:28:43;6.32;;;2.75;;
45618;SDS011;31343;47.520;19.144;2023-03-29T15:31:25;4.07;;;2.42;;
45618;SDS011;31343;47.520;19.144;2023-03-29T15:34:13;5.30;;;2.53;;
45618;SDS011;31343;47.520;19.144;2023-03-29T15:36:49;5.20;;;2.85;;
45618;SDS011;31343;47.520;19.144;2023-03-29T15:39:16;7.63;;;3.05;;
45618;SDS011;31343;47.520;19.144;2023-03-29T15:41:44;5.10;;;2.67;;
45618;SDS011;31343;47.520;19.144;2023-03-29T15:44:15;4.95;;;2.72;;
45618;SDS011;31343;47.520;19.144;2023-03-29T15:46:45;3.80;;;2.35;;
45618;SDS011;31343;47.520;19.144;2023-03-29T15:49:11;5.50;;;3.10;;
45618;SDS011;31343;47.520;19.144;2023-03-29T15:51:37;5.40;;;2.50;;
45618;SDS011;31343;47.520;19.144;2023-03-29T15:54:03;3.78;;;2.42;;
45618;SDS011;31343;47.520;19.144;2023-03-29T15:56:31;4.53;;;2.20;;
45618;SDS011;31343;47.520;19.144;2023-03-29T15:59:01;8.77;;;3.20;;
45618;SDS011;31343;47.520;19.144;2023-03-29T16:01:32;4.63;;;2.47;;
45618;SDS011;31343;47.520;19.144;2023-03-29T16:04:04;3.88;;;2.40;;
45618;SDS011;31343;47.520;19.144;2023-03-29T16:06:32;4.63;;;2.15;;
45618;SDS011;31343;47.520;19.144;2023-03-29T16:08:58;5.05;;;2.40;;
45618;SDS011;31343;47.520;19.144;2023-03-29T16:11:24;3.72;;;2.38;;
45618;SDS011;31343;47.520;19.144;2023-03-29T16:13:52;5.35;;;2.30;;
45618;SDS011;31343;47.520;19.144;2023-03-29T16:16:19;4.93;;;2.20;;
45618;SDS011;31343;47.520;19.144;2023-03-29T16:18:45;6.20;;;2.55;;
45618;SDS011;31343;47.520;19.144;2023-03-29T16:21:12;7.25;;;3.70;;
45618;SDS011;31343;47.520;19.144;2023-03-29T16:23:40;9.13;;;4.45;;
45618;SDS011;31343;47.520;19.144;2023-03-29T16:26:07;4.35;;;2.35;;
45618;SDS011;31343;47.520;19.144;2023-03-29T16:28:35;3.60;;;2.40;;
45618;SDS011;31343;47.520;19.144;2023-03-29T16:31:01;6.97;;;3.95;;
45618;SDS011;31343;47.520;19.144;2023-03-29T16:33:28;4.47;;;2.63;;
45618;SDS011;31343;47.520;19.144;2023-03-29T16:35:53;5.18;;;2.40;;
45618;SDS011;31343;47.520;19.144;2023-03-29T16:38:19;5.78;;;2.92;;
45618;SDS011;31343;47.520;19.144;2023-03-29T16:40:47;7.22;;;2.67;;
45618;SDS011;31343;47.520;19.144;2023-03-29T16:43:16;3.90;;;2.60;;
45618;SDS011;31343;47.520;19.144;2023-03-29T16:45:43;4.80;;;2.35;;